sensor_id;sensor_type;location;lat;lon;timestamp;P1;durP1;ratioP1;P2;durP2;ratioP2
2011;SDS011;1009;51.436;6.972;2022-09-09T00:00:59;2.97;;;0.77;;
2011;SDS011;1009;51.436;6.972;2022-09-09T00:03:31;5.40;;;1.00;;
2011;SDS011;1009;51.436;6.972;2022-09-09T00:06:07;4.03;;;1.00;;
2011;SDS011;1009;51.436;6.972;2022-09-09T00:08:44;1.90;;;0.80;;
2011;SDS011;1009;51.436;6.972;2022-09-09T00:11:23;2.60;;;0.73;;
2011;SDS011;1009;51.436;6.972;2022-09-09T00:13:54;2.17;;;1.03;;
2011;SDS011;1009;51.436;6.972;2022-09-09T00:16:31;3.10;;;0.87;;
2011;SDS011;1009;51.436;6.972;2022-09-09T00:19:03;4.10;;;1.10;;
2011;SDS011;1009;51.436;6.972;2022-09-09T00:21:35;2.57;;;0.60;;
2011;SDS011;1009;51.436;6.972;2022-09-09T00:24:08;3.07;;;1.00;;
2011;SDS011;1009;51.436;6.972;2022-09-09T00:26:40;2.50;;;0.80;;
2011;SDS011;1009;51.436;6.972;2022-09-09T00:29:13;2.17;;;0.87;;
2011;SDS011;1009;51.436;6.972;2022-09-09T00:31:48;2.80;;;0.90;;
2011;SDS011;1009;51.436;6.972;2022-09-09T00:34:21;1.67;;;0.63;;
2011;SDS011;1009;51.436;6.972;2022-09-09T00:36:52;5.73;;;0.87;;
2011;SDS011;1009;51.436;6.972;2022-09-09T00:39:21;1.67;;;0.80;;
2011;SDS011;1009;51.436;6.972;2022-09-09T00:41:59;2.80;;;0.73;;
2011;SDS011;1009;51.436;6.972;2022-09-09T00:44:38;2.00;;;0.80;;
2011;SDS011;1009;51.436;6.972;2022-09-09T00:47:12;2.97;;;1.00;;
2011;SDS011;1009;51.436;6.972;2022-09-09T00:49:50;2.93;;;0.70;;
2011;SDS011;1009;51.436;6.972;2022-09-09T00:52:29;1.27;;;0.60;;
2011;SDS011;1009;51.436;6.972;2022-09-09T00:55:07;2.80;;;0.83;;
2011;SDS011;1009;51.436;6.972;2022-09-09T00:57:40;4.17;;;1.30;;
2011;SDS011;1009;51.436;6.972;2022-09-09T01:02:59;3.13;;;1.20;;
2011;SDS011;1009;51.436;6.972;2022-09-09T01:05:38;2.40;;;0.80;;
2011;SDS011;1009;51.436;6.972;2022-09-09T01:08:12;2.17;;;0.70;;
2011;SDS011;1009;51.436;6.972;2022-09-09T01:10:48;4.87;;;1.30;;
2011;SDS011;1009;51.436;6.972;2022-09-09T01:13:20;2.13;;;1.10;;
2011;SDS011;1009;51.436;6.972;2022-09-09T01:15:50;2.00;;;1.00;;
2011;SDS011;1009;51.436;6.972;2022-09-09T01:18:20;4.93;;;1.40;;
2011;SDS011;1009;51.436;6.972;2022-09-09T01:20:53;1.90;;;1.03;;
2011;SDS011;1009;51.436;6.972;2022-09-09T01:23:33;4.03;;;1.33;;
2011;SDS011;1009;51.436;6.972;2022-09-09T01:26:12;4.80;;;1.57;;
2011;SDS011;1009;51.436;6.972;2022-09-09T01:28:43;4.67;;;1.50;;
2011;SDS011;1009;51.436;6.972;2022-09-09T01:31:14;3.80;;;1.63;;
2011;SDS011;1009;51.436;6.972;2022-09-09T01:33:44;3.87;;;1.43;;
2011;SDS011;1009;51.436;6.972;2022-09-09T01:36:14;3.87;;;1.30;;
2011;SDS011;1009;51.436;6.972;2022-09-09T01:38:48;2.80;;;1.27;;
2011;SDS011;1009;51.436;6.972;2022-09-09T01:41:16;5.00;;;1.40;;
2011;SDS011;1009;51.436;6.972;2022-09-09T01:43:43;2.87;;;1.30;;
2011;SDS011;1009;51.436;6.972;2022-09-09T01:46:10;3.23;;;1.60;;
2011;SDS011;1009;51.436;6.972;2022-09-09T01:48:41;2.87;;;1.60;;
2011;SDS011;1009;51.436;6.972;2022-09-09T01:51:09;2.97;;;1.70;;
2011;SDS011;1009;51.436;6.972;2022-09-09T01:53:36;2.13;;;1.20;;
2011;SDS011;1009;51.436;6.972;2022-09-09T01:56:07;5.00;;;1.40;;
2011;SDS011;1009;51.436;6.972;2022-09-09T01:58:46;4.07;;;1.60;;
2011;SDS011;1009;51.436;6.972;2022-09-09T02:01:23;3.47;;;1.90;;
2011;SDS011;1009;51.436;6.972;2022-09-09T02:03:57;5.17;;;1.70;;
2011;SDS011;1009;51.436;6.972;2022-09-09T02:06:28;2.50;;;1.27;;
2011;SDS011;1009;51.436;6.972;2022-09-09T02:09:00;3.87;;;1.70;;
2011;SDS011;1009;51.436;6.972;2022-09-09T02:11:30;2.10;;;1.33;;
2011;SDS011;1009;51.436;6.972;2022-09-09T02:14:00;7.73;;;1.60;;
2011;SDS011;1009;51.436;6.972;2022-09-09T02:16:32;5.40;;;1.43;;
2011;SDS011;1009;51.436;6.972;2022-09-09T02:19:04;3.10;;;1.43;;
2011;SDS011;1009;51.436;6.972;2022-09-09T02:21:37;5.90;;;1.60;;
2011;SDS011;1009;51.436;6.972;2022-09-09T02:24:08;2.27;;;1.30;;
2011;SDS011;1009;51.436;6.972;2022-09-09T02:26:37;2.93;;;1.30;;
2011;SDS011;1009;51.436;6.972;2022-09-09T02:29:09;4.00;;;1.50;;
2011;SDS011;1009;51.436;6.972;2022-09-09T02:31:39;2.33;;;1.20;;
2011;SDS011;1009;51.436;6.972;2022-09-09T02:34:09;3.50;;;1.53;;
2011;SDS011;1009;51.436;6.972;2022-09-09T02:36:38;2.03;;;1.03;;
2011;SDS011;1009;51.436;6.972;2022-09-09T02:39:09;4.20;;;1.50;;
2011;SDS011;1009;51.436;6.972;2022-09-09T02:41:37;2.20;;;1.40;;
2011;SDS011;1009;51.436;6.972;2022-09-09T02:44:09;6.27;;;1.33;;
2011;SDS011;1009;51.436;6.972;2022-09-09T02:46:41;2.33;;;1.40;;
2011;SDS011;1009;51.436;6.972;2022-09-09T02:49:28;7.63;;;1.47;;
2011;SDS011;1009;51.436;6.972;2022-09-09T02:52:04;3.80;;;1.70;;
2011;SDS011;1009;51.436;6.972;2022-09-09T02:54:33;2.30;;;1.60;;
2011;SDS011;1009;51.436;6.972;2022-09-09T02:57:03;4.40;;;1.57;;
2011;SDS011;1009;51.436;6.972;2022-09-09T02:59:35;5.60;;;2.30;;
2011;SDS011;1009;51.436;6.972;2022-09-09T03:02:02;3.27;;;2.03;;
2011;SDS011;1009;51.436;6.972;2022-09-09T03:04:30;5.47;;;2.60;;
2011;SDS011;1009;51.436;6.972;2022-09-09T03:06:57;5.70;;;2.57;;
2011;SDS011;1009;51.436;6.972;2022-09-09T03:09:24;5.30;;;2.53;;
2011;SDS011;1009;51.436;6.972;2022-09-09T03:11:52;4.83;;;2.70;;
2011;SDS011;1009;51.436;6.972;2022-09-09T03:14:20;8.70;;;2.37;;
2011;SDS011;1009;51.436;6.972;2022-09-09T03:16:51;6.30;;;2.40;;
2011;SDS011;1009;51.436;6.972;2022-09-09T03:19:21;5.30;;;2.67;;
2011;SDS011;1009;51.436;6.972;2022-09-09T03:21:49;6.90;;;2.07;;
2011;SDS011;1009;51.436;6.972;2022-09-09T03:24:16;5.53;;;2.20;;
2011;SDS011;1009;51.436;6.972;2022-09-09T03:26:42;7.93;;;3.13;;
2011;SDS011;1009;51.436;6.972;2022-09-09T03:29:10;4.67;;;2.17;;
2011;SDS011;1009;51.436;6.972;2022-09-09T03:31:38;5.40;;;2.30;;
2011;SDS011;1009;51.436;6.972;2022-09-09T03:34:07;4.07;;;2.60;;
2011;SDS011;1009;51.436;6.972;2022-09-09T03:36:33;4.10;;;1.83;;
2011;SDS011;1009;51.436;6.972;2022-09-09T03:39:00;8.90;;;2.20;;
2011;SDS011;1009;51.436;6.972;2022-09-09T03:41:28;4.10;;;1.97;;
2011;SDS011;1009;51.436;6.972;2022-09-09T03:43:55;5.00;;;2.10;;
2011;SDS011;1009;51.436;6.972;2022-09-09T03:46:23;6.23;;;1.70;;
2011;SDS011;1009;51.436;6.972;2022-09-09T03:48:51;4.87;;;1.70;;
2011;SDS011;1009;51.436;6.972;2022-09-09T03:51:19;4.57;;;1.80;;
2011;SDS011;1009;51.436;6.972;2022-09-09T03:53:47;4.40;;;1.80;;
2011;SDS011;1009;51.436;6.972;2022-09-09T03:56:14;8.87;;;2.00;;
2011;SDS011;1009;51.436;6.972;2022-09-09T03:58:41;6.20;;;2.00;;
2011;SDS011;1009;51.436;6.972;2022-09-09T04:01:08;3.67;;;1.83;;
2011;SDS011;1009;51.436;6.972;2022-09-09T04:03:38;3.10;;;1.70;;
2011;SDS011;1009;51.436;6.972;2022-09-09T04:06:06;5.37;;;1.70;;
2011;SDS011;1009;51.436;6.972;2022-09-09T04:08:36;4.33;;;1.50;;
2011;SDS011;1009;51.436;6.972;2022-09-09T04:11:03;6.30;;;1.60;;
2011;SDS011;1009;51.436;6.972;2022-09-09T04:13:31;2.80;;;1.50;;
2011;SDS011;1009;51.436;6.972;2022-09-09T04:15:59;2.07;;;1.20;;
2011;SDS011;1009;51.436;6.972;2022-09-09T04:18:28;3.97;;;1.47;;
2011;SDS011;1009;51.436;6.972;2022-09-09T04:20:56;4.23;;;1.70;;
2011;SDS011;1009;51.436;6.972;2022-09-09T04:23:23;7.03;;;1.50;;
2011;SDS011;1009;51.436;6.972;2022-09-09T04:25:53;3.90;;;1.40;;
2011;SDS011;1009;51.436;6.972;2022-09-09T04:28:22;6.53;;;1.50;;
2011;SDS011;1009;51.436;6.972;2022-09-09T04:30:50;5.50;;;1.93;;
2011;SDS011;1009;51.436;6.972;2022-09-09T04:33:18;3.20;;;1.63;;
2011;SDS011;1009;51.436;6.972;2022-09-09T04:35:45;3.73;;;1.73;;
2011;SDS011;1009;51.436;6.972;2022-09-09T04:38:13;3.60;;;1.30;;
2011;SDS011;1009;51.436;6.972;2022-09-09T04:40:41;2.60;;;1.33;;
2011;SDS011;1009;51.436;6.972;2022-09-09T04:43:10;5.17;;;2.10;;
2011;SDS011;1009;51.436;6.972;2022-09-09T04:45:37;6.03;;;1.90;;
2011;SDS011;1009;51.436;6.972;2022-09-09T04:48:05;6.67;;;2.00;;
2011;SDS011;1009;51.436;6.972;2022-09-09T04:50:32;4.10;;;1.63;;
2011;SDS011;1009;51.436;6.972;2022-09-09T04:52:59;4.23;;;1.80;;
2011;SDS011;1009;51.436;6.972;2022-09-09T04:55:27;4.50;;;1.63;;
2011;SDS011;1009;51.436;6.972;2022-09-09T04:57:56;3.70;;;1.87;;
2011;SDS011;1009;51.436;6.972;2022-09-09T05:00:24;5.53;;;1.90;;
2011;SDS011;1009;51.436;6.972;2022-09-09T05:02:51;2.80;;;1.77;;
2011;SDS011;1009;51.436;6.972;2022-09-09T05:05:18;4.80;;;1.73;;
2011;SDS011;1009;51.436;6.972;2022-09-09T05:07:45;2.80;;;1.83;;
2011;SDS011;1009;51.436;6.972;2022-09-09T05:10:13;3.93;;;1.50;;
2011;SDS011;1009;51.436;6.972;2022-09-09T05:12:54;5.17;;;1.87;;
2011;SDS011;1009;51.436;6.972;2022-09-09T05:15:21;8.93;;;2.70;;
2011;SDS011;1009;51.436;6.972;2022-09-09T05:17:49;4.37;;;1.67;;
2011;SDS011;1009;51.436;6.972;2022-09-09T05:20:20;4.80;;;1.97;;
2011;SDS011;1009;51.436;6.972;2022-09-09T05:22:53;6.30;;;2.20;;
2011;SDS011;1009;51.436;6.972;2022-09-09T05:25:20;7.83;;;2.13;;
2011;SDS011;1009;51.436;6.972;2022-09-09T05:27:47;6.17;;;2.13;;
2011;SDS011;1009;51.436;6.972;2022-09-09T05:30:14;7.57;;;2.30;;
2011;SDS011;1009;51.436;6.972;2022-09-09T05:32:41;4.40;;;2.20;;
2011;SDS011;1009;51.436;6.972;2022-09-09T05:35:09;5.93;;;2.00;;
2011;SDS011;1009;51.436;6.972;2022-09-09T05:37:36;6.13;;;1.83;;
2011;SDS011;1009;51.436;6.972;2022-09-09T05:40:03;4.30;;;1.93;;
2011;SDS011;1009;51.436;6.972;2022-09-09T05:42:31;4.23;;;1.70;;
2011;SDS011;1009;51.436;6.972;2022-09-09T05:44:58;6.03;;;1.80;;
2011;SDS011;1009;51.436;6.972;2022-09-09T05:47:25;4.43;;;1.83;;
2011;SDS011;1009;51.436;6.972;2022-09-09T05:49:52;6.30;;;2.20;;
2011;SDS011;1009;51.436;6.972;2022-09-09T05:52:23;8.37;;;2.10;;
2011;SDS011;1009;51.436;6.972;2022-09-09T05:54:52;6.10;;;1.90;;
2011;SDS011;1009;51.436;6.972;2022-09-09T05:57:20;7.30;;;1.90;;
2011;SDS011;1009;51.436;6.972;2022-09-09T05:59:46;5.70;;;1.87;;
2011;SDS011;1009;51.436;6.972;2022-09-09T06:02:14;9.30;;;2.20;;
2011;SDS011;1009;51.436;6.972;2022-09-09T06:04:41;6.07;;;1.77;;
2011;SDS011;1009;51.436;6.972;2022-09-09T06:07:08;8.37;;;2.23;;
2011;SDS011;1009;51.436;6.972;2022-09-09T06:09:36;7.17;;;1.97;;
2011;SDS011;1009;51.436;6.972;2022-09-09T06:12:03;5.67;;;2.37;;
2011;SDS011;1009;51.436;6.972;2022-09-09T06:14:30;5.70;;;2.13;;
2011;SDS011;1009;51.436;6.972;2022-09-09T06:16:57;5.90;;;2.13;;
2011;SDS011;1009;51.436;6.972;2022-09-09T06:19:24;4.80;;;2.00;;
2011;SDS011;1009;51.436;6.972;2022-09-09T06:21:51;6.10;;;2.50;;
2011;SDS011;1009;51.436;6.972;2022-09-09T06:24:19;4.10;;;1.83;;
2011;SDS011;1009;51.436;6.972;2022-09-09T06:26:48;5.80;;;2.17;;
2011;SDS011;1009;51.436;6.972;2022-09-09T06:29:15;5.87;;;2.10;;
2011;SDS011;1009;51.436;6.972;2022-09-09T06:31:42;5.27;;;2.23;;
2011;SDS011;1009;51.436;6.972;2022-09-09T06:34:09;5.20;;;2.23;;
2011;SDS011;1009;51.436;6.972;2022-09-09T06:36:36;5.20;;;1.93;;
2011;SDS011;1009;51.436;6.972;2022-09-09T06:39:04;9.00;;;2.10;;
2011;SDS011;1009;51.436;6.972;2022-09-09T06:41:32;4.60;;;2.20;;
2011;SDS011;1009;51.436;6.972;2022-09-09T06:44:00;5.30;;;2.23;;
2011;SDS011;1009;51.436;6.972;2022-09-09T06:46:28;4.70;;;2.23;;
2011;SDS011;1009;51.436;6.972;2022-09-09T06:48:58;5.57;;;2.43;;
2011;SDS011;1009;51.436;6.972;2022-09-09T06:51:26;7.47;;;2.20;;
2011;SDS011;1009;51.436;6.972;2022-09-09T06:53:54;6.17;;;2.47;;
2011;SDS011;1009;51.436;6.972;2022-09-09T06:56:22;6.23;;;2.20;;
2011;SDS011;1009;51.436;6.972;2022-09-09T06:58:53;5.17;;;2.50;;
2011;SDS011;1009;51.436;6.972;2022-09-09T07:01:23;9.40;;;2.70;;
2011;SDS011;1009;51.436;6.972;2022-09-09T07:03:52;9.10;;;3.13;;
2011;SDS011;1009;51.436;6.972;2022-09-09T07:06:20;5.90;;;2.10;;
2011;SDS011;1009;51.436;6.972;2022-09-09T07:08:49;8.60;;;2.97;;
2011;SDS011;1009;51.436;6.972;2022-09-09T07:11:19;4.13;;;2.07;;
2011;SDS011;1009;51.436;6.972;2022-09-09T07:13:48;7.40;;;2.30;;
2011;SDS011;1009;51.436;6.972;2022-09-09T07:16:17;5.43;;;2.10;;
2011;SDS011;1009;51.436;6.972;2022-09-09T07:18:47;6.03;;;2.17;;
2011;SDS011;1009;51.436;6.972;2022-09-09T07:21:15;5.03;;;2.27;;
2011;SDS011;1009;51.436;6.972;2022-09-09T07:23:45;5.37;;;2.20;;
2011;SDS011;1009;51.436;6.972;2022-09-09T07:26:13;6.03;;;2.17;;
2011;SDS011;1009;51.436;6.972;2022-09-09T07:28:41;6.40;;;1.70;;
2011;SDS011;1009;51.436;6.972;2022-09-09T07:31:12;8.50;;;2.00;;
2011;SDS011;1009;51.436;6.972;2022-09-09T07:33:41;4.67;;;1.73;;
2011;SDS011;1009;51.436;6.972;2022-09-09T07:36:13;5.80;;;2.20;;
2011;SDS011;1009;51.436;6.972;2022-09-09T07:38:41;6.13;;;1.80;;
2011;SDS011;1009;51.436;6.972;2022-09-09T07:41:10;4.40;;;2.00;;
2011;SDS011;1009;51.436;6.972;2022-09-09T07:43:39;3.30;;;1.50;;
2011;SDS011;1009;51.436;6.972;2022-09-09T07:46:07;7.00;;;1.87;;
2011;SDS011;1009;51.436;6.972;2022-09-09T07:48:34;3.77;;;1.27;;
2011;SDS011;1009;51.436;6.972;2022-09-09T07:51:06;5.30;;;1.60;;
2011;SDS011;1009;51.436;6.972;2022-09-09T07:53:36;3.13;;;1.67;;
2011;SDS011;1009;51.436;6.972;2022-09-09T07:56:06;5.30;;;1.13;;
2011;SDS011;1009;51.436;6.972;2022-09-09T07:58:34;6.40;;;1.40;;
2011;SDS011;1009;51.436;6.972;2022-09-09T08:01:05;2.40;;;1.30;;
2011;SDS011;1009;51.436;6.972;2022-09-09T08:03:36;5.63;;;1.60;;
2011;SDS011;1009;51.436;6.972;2022-09-09T08:06:04;3.60;;;1.40;;
2011;SDS011;1009;51.436;6.972;2022-09-09T08:08:33;3.47;;;1.57;;
2011;SDS011;1009;51.436;6.972;2022-09-09T08:11:05;5.57;;;1.60;;
2011;SDS011;1009;51.436;6.972;2022-09-09T08:13:34;7.57;;;1.90;;
2011;SDS011;1009;51.436;6.972;2022-09-09T08:16:05;7.10;;;1.57;;
2011;SDS011;1009;51.436;6.972;2022-09-09T08:18:33;7.23;;;1.70;;
2011;SDS011;1009;51.436;6.972;2022-09-09T08:21:08;6.30;;;1.60;;
2011;SDS011;1009;51.436;6.972;2022-09-09T08:23:37;5.00;;;1.90;;
2011;SDS011;1009;51.436;6.972;2022-09-09T08:26:09;4.57;;;1.70;;
2011;SDS011;1009;51.436;6.972;2022-09-09T08:28:37;6.50;;;1.63;;
2011;SDS011;1009;51.436;6.972;2022-09-09T08:31:09;6.30;;;1.53;;
2011;SDS011;1009;51.436;6.972;2022-09-09T08:33:38;3.77;;;1.20;;
2011;SDS011;1009;51.436;6.972;2022-09-09T08:36:06;5.90;;;2.00;;
2011;SDS011;1009;51.436;6.972;2022-09-09T08:38:35;5.13;;;1.60;;
2011;SDS011;1009;51.436;6.972;2022-09-09T08:41:21;4.73;;;1.17;;
2011;SDS011;1009;51.436;6.972;2022-09-09T08:44:11;3.73;;;1.50;;
2011;SDS011;1009;51.436;6.972;2022-09-09T08:46:47;4.80;;;1.10;;
2011;SDS011;1009;51.436;6.972;2022-09-09T08:49:30;3.50;;;1.20;;
2011;SDS011;1009;51.436;6.972;2022-09-09T08:52:21;3.90;;;1.27;;
2011;SDS011;1009;51.436;6.972;2022-09-09T08:54:53;3.70;;;1.10;;
2011;SDS011;1009;51.436;6.972;2022-09-09T08:57:29;3.40;;;1.27;;
2011;SDS011;1009;51.436;6.972;2022-09-09T08:59:58;6.13;;;1.30;;
2011;SDS011;1009;51.436;6.972;2022-09-09T09:02:25;4.40;;;1.20;;
2011;SDS011;1009;51.436;6.972;2022-09-09T09:05:04;4.67;;;1.23;;
2011;SDS011;1009;51.436;6.972;2022-09-09T09:07:42;5.73;;;1.20;;
2011;SDS011;1009;51.436;6.972;2022-09-09T09:10:22;4.40;;;1.30;;
2011;SDS011;1009;51.436;6.972;2022-09-09T09:13:08;4.13;;;1.33;;
2011;SDS011;1009;51.436;6.972;2022-09-09T09:15:43;4.73;;;1.40;;
2011;SDS011;1009;51.436;6.972;2022-09-09T09:18:14;3.70;;;1.60;;
2011;SDS011;1009;51.436;6.972;2022-09-09T09:20:47;6.57;;;1.20;;
2011;SDS011;1009;51.436;6.972;2022-09-09T09:23:21;5.17;;;1.60;;
2011;SDS011;1009;51.436;6.972;2022-09-09T09:25:50;4.80;;;1.47;;
2011;SDS011;1009;51.436;6.972;2022-09-09T09:28:24;4.10;;;1.20;;
2011;SDS011;1009;51.436;6.972;2022-09-09T09:30:53;3.60;;;1.57;;
2011;SDS011;1009;51.436;6.972;2022-09-09T09:33:24;3.33;;;1.40;;
2011;SDS011;1009;51.436;6.972;2022-09-09T09:35:56;8.10;;;1.40;;
2011;SDS011;1009;51.436;6.972;2022-09-09T09:38:25;7.10;;;1.40;;
2011;SDS011;1009;51.436;6.972;2022-09-09T09:40:53;6.70;;;1.50;;
2011;SDS011;1009;51.436;6.972;2022-09-09T09:43:26;3.37;;;1.30;;
2011;SDS011;1009;51.436;6.972;2022-09-09T09:45:54;8.83;;;1.47;;
2011;SDS011;1009;51.436;6.972;2022-09-09T09:48:23;3.57;;;1.77;;
2011;SDS011;1009;51.436;6.972;2022-09-09T09:50:51;3.17;;;1.40;;
2011;SDS011;1009;51.436;6.972;2022-09-09T09:53:20;5.07;;;1.30;;
2011;SDS011;1009;51.436;6.972;2022-09-09T09:55:52;2.93;;;1.33;;
2011;SDS011;1009;51.436;6.972;2022-09-09T09:58:22;4.33;;;1.30;;
2011;SDS011;1009;51.436;6.972;2022-09-09T10:00:51;4.80;;;1.67;;
2011;SDS011;1009;51.436;6.972;2022-09-09T10:03:24;4.00;;;1.07;;
2011;SDS011;1009;51.436;6.972;2022-09-09T10:05:52;2.50;;;1.20;;
2011;SDS011;1009;51.436;6.972;2022-09-09T10:08:21;3.70;;;1.30;;
2011;SDS011;1009;51.436;6.972;2022-09-09T10:10:51;4.13;;;1.20;;
2011;SDS011;1009;51.436;6.972;2022-09-09T10:13:35;4.20;;;1.10;;
2011;SDS011;1009;51.436;6.972;2022-09-09T10:16:13;6.63;;;1.33;;
2011;SDS011;1009;51.436;6.972;2022-09-09T10:18:56;3.80;;;1.10;;
2011;SDS011;1009;51.436;6.972;2022-09-09T10:27:11;3.17;;;1.20;;
2011;SDS011;1009;51.436;6.972;2022-09-09T10:30:06;2.67;;;1.03;;
2011;SDS011;1009;51.436;6.972;2022-09-09T10:32:45;4.77;;;1.47;;
2011;SDS011;1009;51.436;6.972;2022-09-09T10:35:26;3.43;;;0.90;;
2011;SDS011;1009;51.436;6.972;2022-09-09T10:38:05;3.50;;;0.90;;
2011;SDS011;1009;51.436;6.972;2022-09-09T10:40:42;4.47;;;0.90;;
2011;SDS011;1009;51.436;6.972;2022-09-09T10:43:18;5.50;;;1.00;;
2011;SDS011;1009;51.436;6.972;2022-09-09T10:45:56;3.27;;;0.90;;
2011;SDS011;1009;51.436;6.972;2022-09-09T10:48:36;2.30;;;1.00;;
2011;SDS011;1009;51.436;6.972;2022-09-09T10:51:18;2.83;;;1.00;;
2011;SDS011;1009;51.436;6.972;2022-09-09T10:53:53;3.43;;;0.90;;
2011;SDS011;1009;51.436;6.972;2022-09-09T10:56:31;3.80;;;1.10;;
2011;SDS011;1009;51.436;6.972;2022-09-09T10:58:59;5.00;;;1.00;;
2011;SDS011;1009;51.436;6.972;2022-09-09T11:01:32;1.57;;;0.70;;
2011;SDS011;1009;51.436;6.972;2022-09-09T11:04:10;4.60;;;1.30;;
2011;SDS011;1009;51.436;6.972;2022-09-09T11:06:44;3.80;;;1.10;;
2011;SDS011;1009;51.436;6.972;2022-09-09T11:09:19;3.10;;;0.90;;
2011;SDS011;1009;51.436;6.972;2022-09-09T11:11:51;3.63;;;1.00;;
2011;SDS011;1009;51.436;6.972;2022-09-09T11:14:21;3.60;;;1.00;;
2011;SDS011;1009;51.436;6.972;2022-09-09T11:16:57;3.53;;;1.20;;
2011;SDS011;1009;51.436;6.972;2022-09-09T11:19:28;5.00;;;0.90;;
2011;SDS011;1009;51.436;6.972;2022-09-09T11:22:00;4.67;;;1.00;;
2011;SDS011;1009;51.436;6.972;2022-09-09T11:24:30;3.57;;;0.70;;
2011;SDS011;1009;51.436;6.972;2022-09-09T11:27:01;2.27;;;0.80;;
2011;SDS011;1009;51.436;6.972;2022-09-09T11:35:33;5.93;;;1.77;;
2011;SDS011;1009;51.436;6.972;2022-09-09T11:38:10;6.00;;;1.10;;
2011;SDS011;1009;51.436;6.972;2022-09-09T11:40:46;1.67;;;1.00;;
2011;SDS011;1009;51.436;6.972;2022-09-09T11:43:15;4.60;;;1.80;;
2011;SDS011;1009;51.436;6.972;2022-09-09T11:45:50;3.87;;;1.03;;
2011;SDS011;1009;51.436;6.972;2022-09-09T11:48:26;4.23;;;1.10;;
2011;SDS011;1009;51.436;6.972;2022-09-09T11:51:02;5.50;;;1.13;;
2011;SDS011;1009;51.436;6.972;2022-09-09T11:53:32;1.93;;;0.70;;
2011;SDS011;1009;51.436;6.972;2022-09-09T11:56:07;5.60;;;1.23;;
2011;SDS011;1009;51.436;6.972;2022-09-09T11:58:43;3.37;;;1.00;;
2011;SDS011;1009;51.436;6.972;2022-09-09T12:01:38;3.03;;;1.30;;
2011;SDS011;1009;51.436;6.972;2022-09-09T12:04:12;2.20;;;1.00;;
2011;SDS011;1009;51.436;6.972;2022-09-09T12:06:50;6.40;;;1.20;;
2011;SDS011;1009;51.436;6.972;2022-09-09T12:09:23;2.50;;;0.90;;
2011;SDS011;1009;51.436;6.972;2022-09-09T12:12:04;4.17;;;0.90;;
2011;SDS011;1009;51.436;6.972;2022-09-09T12:14:37;3.13;;;1.07;;
2011;SDS011;1009;51.436;6.972;2022-09-09T12:17:09;3.53;;;1.07;;
2011;SDS011;1009;51.436;6.972;2022-09-09T12:19:45;6.10;;;1.17;;
2011;SDS011;1009;51.436;6.972;2022-09-09T12:22:15;2.33;;;1.20;;
2011;SDS011;1009;51.436;6.972;2022-09-09T12:24:52;2.03;;;0.80;;
2011;SDS011;1009;51.436;6.972;2022-09-09T12:27:26;2.43;;;0.73;;
2011;SDS011;1009;51.436;6.972;2022-09-09T12:29:59;4.47;;;1.20;;
2011;SDS011;1009;51.436;6.972;2022-09-09T12:32:30;3.30;;;1.30;;
2011;SDS011;1009;51.436;6.972;2022-09-09T12:34:58;2.70;;;0.90;;
2011;SDS011;1009;51.436;6.972;2022-09-09T12:37:29;3.60;;;1.10;;
2011;SDS011;1009;51.436;6.972;2022-09-09T12:40:00;4.03;;;1.20;;
2011;SDS011;1009;51.436;6.972;2022-09-09T12:42:29;3.30;;;1.07;;
2011;SDS011;1009;51.436;6.972;2022-09-09T12:44:58;3.23;;;1.00;;
2011;SDS011;1009;51.436;6.972;2022-09-09T12:47:30;2.70;;;1.13;;
2011;SDS011;1009;51.436;6.972;2022-09-09T12:50:04;3.63;;;1.40;;
2011;SDS011;1009;51.436;6.972;2022-09-09T12:52:34;4.63;;;1.20;;
2011;SDS011;1009;51.436;6.972;2022-09-09T12:55:04;4.10;;;1.17;;
2011;SDS011;1009;51.436;6.972;2022-09-09T12:57:34;3.20;;;1.20;;
2011;SDS011;1009;51.436;6.972;2022-09-09T13:00:07;3.83;;;1.53;;
2011;SDS011;1009;51.436;6.972;2022-09-09T13:02:45;3.90;;;1.30;;
2011;SDS011;1009;51.436;6.972;2022-09-09T13:05:16;3.60;;;1.00;;
2011;SDS011;1009;51.436;6.972;2022-09-09T13:07:46;4.33;;;0.80;;
2011;SDS011;1009;51.436;6.972;2022-09-09T13:10:14;3.77;;;0.90;;
2011;SDS011;1009;51.436;6.972;2022-09-09T13:12:45;5.30;;;1.27;;
2011;SDS011;1009;51.436;6.972;2022-09-09T13:15:14;4.70;;;1.07;;
2011;SDS011;1009;51.436;6.972;2022-09-09T13:17:51;3.60;;;0.83;;
2011;SDS011;1009;51.436;6.972;2022-09-09T13:20:20;4.67;;;1.30;;
2011;SDS011;1009;51.436;6.972;2022-09-09T13:22:49;6.17;;;1.67;;
2011;SDS011;1009;51.436;6.972;2022-09-09T13:25:19;2.77;;;1.17;;
2011;SDS011;1009;51.436;6.972;2022-09-09T13:27:55;2.90;;;1.27;;
2011;SDS011;1009;51.436;6.972;2022-09-09T13:30:27;3.13;;;1.30;;
2011;SDS011;1009;51.436;6.972;2022-09-09T13:32:59;4.00;;;1.57;;
2011;SDS011;1009;51.436;6.972;2022-09-09T13:35:45;3.87;;;1.20;;
2011;SDS011;1009;51.436;6.972;2022-09-09T13:38:15;5.30;;;2.00;;
2011;SDS011;1009;51.436;6.972;2022-09-09T13:40:51;2.17;;;1.10;;
2011;SDS011;1009;51.436;6.972;2022-09-09T13:43:21;4.53;;;0.90;;
2011;SDS011;1009;51.436;6.972;2022-09-09T13:45:52;2.63;;;1.30;;
2011;SDS011;1009;51.436;6.972;2022-09-09T13:48:22;1.50;;;0.90;;
2011;SDS011;1009;51.436;6.972;2022-09-09T13:50:54;3.10;;;1.20;;
2011;SDS011;1009;51.436;6.972;2022-09-09T13:53:26;5.40;;;1.10;;
2011;SDS011;1009;51.436;6.972;2022-09-09T13:55:53;4.93;;;1.60;;
2011;SDS011;1009;51.436;6.972;2022-09-09T13:58:22;3.23;;;1.00;;
2011;SDS011;1009;51.436;6.972;2022-09-09T14:00:50;3.10;;;1.00;;
2011;SDS011;1009;51.436;6.972;2022-09-09T14:03:25;2.77;;;2.20;;
2011;SDS011;1009;51.436;6.972;2022-09-09T14:05:52;5.43;;;1.03;;
2011;SDS011;1009;51.436;6.972;2022-09-09T14:08:23;3.87;;;1.33;;
2011;SDS011;1009;51.436;6.972;2022-09-09T14:10:53;2.63;;;1.13;;
2011;SDS011;1009;51.436;6.972;2022-09-09T14:13:24;3.20;;;0.90;;
2011;SDS011;1009;51.436;6.972;2022-09-09T14:15:53;6.80;;;1.20;;
2011;SDS011;1009;51.436;6.972;2022-09-09T14:18:27;3.20;;;1.10;;
2011;SDS011;1009;51.436;6.972;2022-09-09T14:20:54;4.87;;;1.40;;
2011;SDS011;1009;51.436;6.972;2022-09-09T14:23:22;6.33;;;1.30;;
2011;SDS011;1009;51.436;6.972;2022-09-09T14:25:49;10.00;;;1.60;;
2011;SDS011;1009;51.436;6.972;2022-09-09T14:28:18;8.33;;;1.37;;
2011;SDS011;1009;51.436;6.972;2022-09-09T14:30:45;3.20;;;1.20;;
2011;SDS011;1009;51.436;6.972;2022-09-09T14:33:12;5.30;;;1.70;;
2011;SDS011;1009;51.436;6.972;2022-09-09T14:35:40;5.90;;;1.27;;
2011;SDS011;1009;51.436;6.972;2022-09-09T14:38:08;2.33;;;1.13;;
2011;SDS011;1009;51.436;6.972;2022-09-09T14:40:37;4.30;;;1.33;;
2011;SDS011;1009;51.436;6.972;2022-09-09T14:43:04;4.50;;;1.40;;
2011;SDS011;1009;51.436;6.972;2022-09-09T14:45:33;6.93;;;1.60;;
2011;SDS011;1009;51.436;6.972;2022-09-09T14:48:03;3.30;;;1.33;;
2011;SDS011;1009;51.436;6.972;2022-09-09T14:50:29;2.60;;;1.10;;
2011;SDS011;1009;51.436;6.972;2022-09-09T14:52:56;4.43;;;1.23;;
2011;SDS011;1009;51.436;6.972;2022-09-09T14:55:23;10.90;;;1.70;;
2011;SDS011;1009;51.436;6.972;2022-09-09T14:57:53;5.90;;;1.50;;
2011;SDS011;1009;51.436;6.972;2022-09-09T15:00:20;5.27;;;1.33;;
2011;SDS011;1009;51.436;6.972;2022-09-09T15:02:48;2.73;;;0.80;;
2011;SDS011;1009;51.436;6.972;2022-09-09T15:05:18;3.37;;;1.23;;
2011;SDS011;1009;51.436;6.972;2022-09-09T15:07:45;2.87;;;1.43;;
2011;SDS011;1009;51.436;6.972;2022-09-09T15:10:12;2.37;;;1.40;;
2011;SDS011;1009;51.436;6.972;2022-09-09T15:12:38;3.20;;;1.63;;
2011;SDS011;1009;51.436;6.972;2022-09-09T15:15:07;5.03;;;1.60;;
2011;SDS011;1009;51.436;6.972;2022-09-09T15:17:34;4.90;;;0.90;;
2011;SDS011;1009;51.436;6.972;2022-09-09T15:20:03;1.90;;;0.90;;
2011;SDS011;1009;51.436;6.972;2022-09-09T15:22:31;1.73;;;0.83;;
2011;SDS011;1009;51.436;6.972;2022-09-09T15:25:01;1.83;;;0.90;;
2011;SDS011;1009;51.436;6.972;2022-09-09T15:27:28;1.40;;;0.70;;
2011;SDS011;1009;51.436;6.972;2022-09-09T15:29:56;1.20;;;0.70;;
2011;SDS011;1009;51.436;6.972;2022-09-09T15:32:23;1.70;;;0.63;;
2011;SDS011;1009;51.436;6.972;2022-09-09T15:34:50;1.47;;;0.60;;
2011;SDS011;1009;51.436;6.972;2022-09-09T15:37:20;1.83;;;0.70;;
2011;SDS011;1009;51.436;6.972;2022-09-09T15:39:47;3.17;;;0.73;;
2011;SDS011;1009;51.436;6.972;2022-09-09T15:42:14;3.13;;;0.60;;
2011;SDS011;1009;51.436;6.972;2022-09-09T15:44:40;2.43;;;0.73;;
2011;SDS011;1009;51.436;6.972;2022-09-09T15:47:07;1.43;;;0.60;;
2011;SDS011;1009;51.436;6.972;2022-09-09T15:49:37;1.30;;;0.60;;
2011;SDS011;1009;51.436;6.972;2022-09-09T15:52:04;2.40;;;0.63;;